createdAt,value
2019-03-31T00:01:12.127Z,61.79
2019-03-31T00:06:08.949Z,61.82
2019-03-31T00:11:05.635Z,62.87
2019-03-31T00:16:02.661Z,61.84
2019-03-31T00:20:59.285Z,61.86
2019-03-31T00:25:55.919Z,63.02
2019-03-31T00:30:53.350Z,60.98
2019-03-31T00:35:49.947Z,63.68
2019-03-31T00:40:46.589Z,63.86
2019-03-31T00:45:43.249Z,65.54
2019-03-31T00:50:40.014Z,66.52
2019-03-31T00:55:36.601Z,66.82
2019-03-31T01:00:51.815Z,65.84
2019-03-31T01:05:48.865Z,65.09
2019-03-31T01:10:46.921Z,65.87
2019-03-31T01:15:43.599Z,66.88
2019-03-31T01:20:40.313Z,67.56
2019-03-31T01:25:36.880Z,66.98
2019-03-31T01:30:33.519Z,66.57
2019-03-31T01:35:30.480Z,67.83
2019-03-31T01:40:27.159Z,68.80
2019-03-31T01:45:24.114Z,68.62
2019-03-31T01:50:22.525Z,69.82
2019-03-31T01:55:19.296Z,67.50
2019-03-31T02:00:30.331Z,66.81
2019-03-31T02:05:26.986Z,69.36
2019-03-31T02:10:23.779Z,68.83
2019-03-31T02:15:24.329Z,69.23
2019-03-31T02:20:21.095Z,70.32
2019-03-31T02:25:17.704Z,70.08
2019-03-31T02:30:14.873Z,68.06
2019-03-31T02:35:11.857Z,69.29
2019-03-31T02:40:09.816Z,68.82
2019-03-31T02:45:06.779Z,69.72
2019-03-31T02:50:03.445Z,71.77
2019-03-31T02:55:00.564Z,72.16
2019-03-31T02:59:58.817Z,72.23
2019-03-31T03:04:58.122Z,73.90
2019-03-31T03:09:57.121Z,74.20
2019-03-31T03:14:56.482Z,73.94
2019-03-31T03:19:53.205Z,74.05
2019-03-31T03:24:49.759Z,72.34
2019-03-31T03:29:46.452Z,74.78
2019-03-31T03:34:44.073Z,76.00
2019-03-31T03:39:40.701Z,74.16
2019-03-31T03:44:37.300Z,75.40
2019-03-31T03:49:33.857Z,74.95
2019-03-31T03:54:30.496Z,75.90
2019-03-31T03:59:27.162Z,75.67
2019-03-31T04:04:23.740Z,74.64
2019-03-31T04:09:20.337Z,74.03
2019-03-31T04:14:17.129Z,76.65
2019-03-31T04:19:13.731Z,76.76
2019-03-31T04:24:10.565Z,77.45
2019-03-31T04:29:07.224Z,75.65
2019-03-31T04:34:03.881Z,76.81
2019-03-31T04:39:00.912Z,75.37
2019-03-31T04:43:57.635Z,77.26
2019-03-31T04:48:54.271Z,79.03
2019-03-31T04:53:51.893Z,79.84
2019-03-31T04:58:48.500Z,78.49
2019-03-31T05:03:45.155Z,79.83
2019-03-31T05:08:41.776Z,79.58
2019-03-31T05:13:38.373Z,79.33
2019-03-31T05:18:35.109Z,80.15
2019-03-31T05:23:31.757Z,80.35
2019-03-31T05:28:28.407Z,79.71
2019-03-31T05:33:24.982Z,77.33
2019-03-31T05:38:21.621Z,77.87
2019-03-31T05:43:18.215Z,78.20
2019-03-31T05:48:14.928Z,79.90
2019-03-31T05:53:11.503Z,80.24
2019-03-31T05:58:11.286Z,81.36
2019-03-31T06:03:07.946Z,80.92
2019-03-31T06:08:04.662Z,82.12
2019-03-31T06:13:01.264Z,80.27
2019-03-31T06:17:57.948Z,79.64
2019-03-31T06:22:54.562Z,79.95
2019-03-31T06:27:51.195Z,79.99
2019-03-31T06:32:47.795Z,79.35
2019-03-31T06:37:46.453Z,78.42
2019-03-31T06:42:43.071Z,77.64
2019-03-31T06:47:39.659Z,78.93
2019-03-31T06:52:36.319Z,78.92
2019-03-31T06:57:32.972Z,80.92
2019-03-31T07:02:29.648Z,80.38
2019-03-31T07:07:26.259Z,80.85
2019-03-31T07:12:22.780Z,80.83
2019-03-31T07:17:19.436Z,78.26
2019-03-31T07:22:16.081Z,78.22
2019-03-31T07:27:12.651Z,76.29
2019-03-31T07:32:09.583Z,73.70
2019-03-31T07:37:06.340Z,72.95
2019-03-31T07:42:03.424Z,70.19
2019-03-31T07:47:01.194Z,70.14
2019-03-31T07:51:57.947Z,68.23
2019-03-31T07:56:54.534Z,68.83
2019-03-31T08:01:51.131Z,67.33
2019-03-31T08:06:47.718Z,62.40
2019-03-31T08:11:45.348Z,61.92
2019-03-31T08:16:42.001Z,62.21
2019-03-31T08:21:38.563Z,60.14
2019-03-31T08:26:35.206Z,59.11
2019-03-31T08:31:31.893Z,57.65
2019-03-31T08:36:28.771Z,58.95
2019-03-31T08:41:25.480Z,58.65
2019-03-31T08:46:22.269Z,60.17
2019-03-31T08:51:18.897Z,61.14
2019-03-31T08:56:15.550Z,60.37
2019-03-31T09:01:14.502Z,58.68
2019-03-31T09:06:12.784Z,60.21
2019-03-31T09:11:09.368Z,58.67
2019-03-31T09:16:06.088Z,59.21
2019-03-31T09:21:02.700Z,55.94
2019-03-31T09:25:59.284Z,55.99
2019-03-31T09:30:55.992Z,54.86
2019-03-31T09:35:54.826Z,53.35
2019-03-31T09:40:51.540Z,52.81
2019-03-31T09:45:48.146Z,53.34
2019-03-31T09:50:44.999Z,53.76
2019-03-31T09:55:43.775Z,51.86
2019-03-31T10:00:49.491Z,52.25
2019-03-31T10:05:48.163Z,50.78
2019-03-31T10:10:45.209Z,52.45
2019-03-31T10:15:41.808Z,49.33
2019-03-31T10:20:38.495Z,50.72
2019-03-31T10:25:35.229Z,51.71
2019-03-31T10:30:36.810Z,51.17
2019-03-31T10:35:33.362Z,49.08
2019-03-31T10:40:32.267Z,51.37
2019-03-31T10:45:28.921Z,51.28
2019-03-31T10:50:25.793Z,50.33
2019-03-31T10:55:22.438Z,50.75
2019-03-31T11:00:32.850Z,50.30
2019-03-31T11:05:31.133Z,47.62
2019-03-31T11:10:27.792Z,49.87
2019-03-31T11:15:24.373Z,45.26
2019-03-31T11:20:21.213Z,49.03
2019-03-31T11:25:22.062Z,46.17
2019-03-31T11:30:16.661Z,45.34
2019-03-31T11:35:13.705Z,43.51
2019-03-31T11:40:10.865Z,45.20
2019-03-31T11:45:08.331Z,46.05
2019-03-31T11:50:05.751Z,46.68
2019-03-31T11:55:02.312Z,45.39
2019-03-31T11:59:58.955Z,45.29
2019-03-31T12:04:55.633Z,43.70
2019-03-31T12:09:52.370Z,44.51
2019-03-31T12:14:59.841Z,45.21
2019-03-31T12:19:48.952Z,42.50
2019-03-31T12:24:45.720Z,44.34
2019-03-31T12:29:42.475Z,41.27
2019-03-31T12:34:39.232Z,43.21
2019-03-31T12:39:35.915Z,41.94
2019-03-31T12:44:33.609Z,43.60
2019-03-31T12:49:30.314Z,41.53
2019-03-31T12:54:27.050Z,41.98
2019-03-31T12:59:27.074Z,36.80
2019-03-31T13:04:22.259Z,40.71
2019-03-31T13:09:18.940Z,39.94
2019-03-31T13:14:16.118Z,38.32
2019-03-31T13:19:12.778Z,38.15
2019-03-31T13:24:11.127Z,39.53
2019-03-31T13:29:08.780Z,37.23
2019-03-31T13:34:08.714Z,37.09
2019-03-31T13:39:08.786Z,38.63
2019-03-31T13:44:05.629Z,38.29
2019-03-31T13:49:05.344Z,36.97
2019-03-31T13:54:05.694Z,37.24
2019-03-31T13:59:09.090Z,36.19
2019-03-31T14:04:27.181Z,32.39
2019-03-31T14:09:45.833Z,33.33
2019-03-31T14:15:28.305Z,34.37
2019-03-31T14:20:18.637Z,31.10
2019-03-31T14:25:25.308Z,33.16
2019-03-31T14:30:41.898Z,33.58
2019-03-31T14:35:38.692Z,32.52
2019-03-31T14:40:41.069Z,31.47
2019-03-31T14:45:41.668Z,31.53
2019-03-31T14:50:40.213Z,31.57
2019-03-31T14:55:36.892Z,31.52
2019-03-31T15:00:33.576Z,30.97
2019-03-31T15:05:30.347Z,30.76
2019-03-31T15:10:27.076Z,31.46
2019-03-31T15:15:23.741Z,30.47
2019-03-31T15:20:22.845Z,31.20
2019-03-31T15:25:20.587Z,31.33
2019-03-31T15:30:18.006Z,31.74
2019-03-31T15:35:14.943Z,32.50
2019-03-31T15:40:13.808Z,33.78
2019-03-31T15:45:10.985Z,33.15
2019-03-31T15:50:09.038Z,33.94
2019-03-31T15:55:06.182Z,34.13
2019-03-31T16:00:05.748Z,32.98
2019-03-31T16:05:03.410Z,33.27
2019-03-31T16:09:59.233Z,33.14
2019-03-31T16:28:30.568Z,32.48
2019-03-31T16:33:26.393Z,32.29
2019-03-31T16:38:25.510Z,33.19
2019-03-31T16:43:19.817Z,33.17
2019-03-31T16:48:15.842Z,33.74
2019-03-31T16:53:11.673Z,32.69
2019-03-31T16:58:09.432Z,33.69
2019-03-31T17:03:05.101Z,33.15
2019-03-31T17:08:01.040Z,33.79
2019-03-31T17:12:58.309Z,32.62
2019-03-31T17:17:54.206Z,34.28
2019-03-31T17:22:50.156Z,34.54
2019-03-31T17:27:46.978Z,34.07
2019-03-31T17:32:42.885Z,34.23
2019-03-31T17:37:38.722Z,35.76
2019-03-31T17:42:34.731Z,34.43
2019-03-31T17:47:30.539Z,35.41
2019-03-31T17:52:26.522Z,36.72
2019-03-31T17:57:22.448Z,36.60
2019-03-31T18:02:18.233Z,36.88
2019-03-31T18:07:14.007Z,38.39
2019-03-31T18:12:09.818Z,37.71
2019-03-31T18:17:05.684Z,37.63
2019-03-31T18:22:15.580Z,39.94
2019-03-31T18:26:59.276Z,41.94
2019-03-31T18:31:55.297Z,40.54
2019-03-31T18:36:51.174Z,41.79
2019-03-31T18:41:46.927Z,42.80
2019-03-31T18:46:42.957Z,43.29
2019-03-31T18:51:38.794Z,42.60
2019-03-31T18:56:45.519Z,43.30
2019-03-31T19:01:52.148Z,44.72
2019-03-31T19:06:54.736Z,45.59
2019-03-31T19:12:12.323Z,46.02
2019-03-31T19:17:19.865Z,46.70
2019-03-31T19:22:33.154Z,46.21
2019-03-31T19:27:43.199Z,47.19
2019-03-31T19:32:57.916Z,46.40
2019-03-31T19:38:14.185Z,46.06
2019-03-31T19:43:35.291Z,47.16
2019-03-31T19:48:38.386Z,49.20
2019-03-31T19:53:54.826Z,46.32
2019-03-31T19:59:08.389Z,48.09
2019-03-31T20:04:22.996Z,45.82
2019-03-31T20:09:43.797Z,48.68
2019-03-31T20:15:04.402Z,49.08
2019-03-31T20:20:13.068Z,45.03
2019-03-31T20:25:16.353Z,46.74
2019-03-31T20:30:32.789Z,48.01
2019-03-31T20:35:40.489Z,48.28
2019-03-31T20:40:40.982Z,47.26
2019-03-31T20:45:36.895Z,45.52
2019-03-31T20:50:32.741Z,47.08
2019-03-31T20:55:28.513Z,48.11
2019-03-31T21:00:28.675Z,47.32
2019-03-31T21:05:29.738Z,44.67
2019-03-31T21:10:25.617Z,47.67
2019-03-31T21:15:21.886Z,48.82
2019-03-31T21:20:17.978Z,48.79
2019-03-31T21:25:14.231Z,48.53
2019-03-31T21:30:10.413Z,50.59
2019-03-31T21:35:07.051Z,49.37
2019-03-31T21:40:03.456Z,49.88
2019-03-31T21:45:07.435Z,49.65
2019-03-31T21:50:03.475Z,49.51
2019-03-31T21:55:01.044Z,50.06
2019-03-31T22:00:05.774Z,49.09
2019-03-31T22:05:03.239Z,51.97
2019-03-31T22:09:59.260Z,53.58
2019-03-31T22:14:57.796Z,53.81
2019-03-31T22:19:57.057Z,55.04
2019-03-31T22:24:53.012Z,54.56
2019-03-31T22:29:49.435Z,55.10
2019-03-31T22:34:45.359Z,55.52
2019-03-31T22:39:41.313Z,54.94
2019-03-31T22:44:37.783Z,55.67
2019-03-31T22:49:33.896Z,55.67
2019-03-31T22:54:30.044Z,57.45
2019-03-31T22:59:26.141Z,57.16
2019-03-31T23:04:22.797Z,56.21
2019-03-31T23:09:18.778Z,56.18
2019-03-31T23:14:15.496Z,56.94
2019-03-31T23:19:15.008Z,57.75
2019-03-31T23:24:10.916Z,58.13
2019-03-31T23:29:07.198Z,59.64
2019-03-31T23:34:03.307Z,59.25
2019-03-31T23:38:59.213Z,58.99
2019-03-31T23:43:55.326Z,59.27
2019-03-31T23:48:51.306Z,60.21
2019-03-31T23:53:47.226Z,60.08
2019-03-31T23:58:43.226Z,60.74
